sensor_id;sensor_type;location;lat;lon;timestamp;P1;durP1;ratioP1;P2;durP2;ratioP2
61460;SDS011;47325;50.506;4.472;2023-12-20T00:00:21;5.30;;;1.90;;
61460;SDS011;47325;50.506;4.472;2023-12-20T00:06:05;4.10;;;1.80;;
61460;SDS011;47325;50.506;4.472;2023-12-20T00:11:49;6.00;;;2.10;;
61460;SDS011;47325;50.506;4.472;2023-12-20T00:17:34;4.70;;;1.70;;
61460;SDS011;47325;50.506;4.472;2023-12-20T00:23:18;8.20;;;1.70;;
61460;SDS011;47325;50.506;4.472;2023-12-20T00:29:02;5.00;;;1.70;;
61460;SDS011;47325;50.506;4.472;2023-12-20T00:34:47;2.50;;;1.40;;
61460;SDS011;47325;50.506;4.472;2023-12-20T00:40:31;5.70;;;1.70;;
61460;SDS011;47325;50.506;4.472;2023-12-20T00:46:15;4.60;;;1.70;;
61460;SDS011;47325;50.506;4.472;2023-12-20T00:51:59;4.80;;;1.40;;
61460;SDS011;47325;50.506;4.472;2023-12-20T00:57:43;4.50;;;1.40;;
61460;SDS011;47325;50.506;4.472;2023-12-20T01:03:29;4.20;;;1.60;;
61460;SDS011;47325;50.506;4.472;2023-12-20T01:09:18;4.40;;;1.30;;
61460;SDS011;47325;50.506;4.472;2023-12-20T01:15:02;5.40;;;1.60;;
61460;SDS011;47325;50.506;4.472;2023-12-20T01:20:46;5.50;;;1.40;;
61460;SDS011;47325;50.506;4.472;2023-12-20T01:26:32;4.10;;;1.50;;
61460;SDS011;47325;50.506;4.472;2023-12-20T01:32:16;4.40;;;1.60;;
61460;SDS011;47325;50.506;4.472;2023-12-20T01:38:00;5.40;;;1.40;;
61460;SDS011;47325;50.506;4.472;2023-12-20T01:43:44;4.00;;;1.40;;
61460;SDS011;47325;50.506;4.472;2023-12-20T01:49:34;5.70;;;1.60;;
61460;SDS011;47325;50.506;4.472;2023-12-20T01:55:18;5.90;;;1.80;;
61460;SDS011;47325;50.506;4.472;2023-12-20T02:01:03;5.40;;;1.50;;
61460;SDS011;47325;50.506;4.472;2023-12-20T02:06:47;6.80;;;1.60;;
61460;SDS011;47325;50.506;4.472;2023-12-20T02:12:32;5.40;;;1.70;;
61460;SDS011;47325;50.506;4.472;2023-12-20T02:18:16;5.40;;;1.60;;
61460;SDS011;47325;50.506;4.472;2023-12-20T02:24:00;7.30;;;1.90;;
61460;SDS011;47325;50.506;4.472;2023-12-20T02:29:44;7.00;;;1.70;;
61460;SDS011;47325;50.506;4.472;2023-12-20T02:35:30;7.60;;;2.10;;
61460;SDS011;47325;50.506;4.472;2023-12-20T02:41:14;6.10;;;2.30;;
61460;SDS011;47325;50.506;4.472;2023-12-20T02:46:59;5.80;;;2.30;;
61460;SDS011;47325;50.506;4.472;2023-12-20T02:52:44;7.90;;;2.10;;
61460;SDS011;47325;50.506;4.472;2023-12-20T02:58:28;6.80;;;2.50;;
61460;SDS011;47325;50.506;4.472;2023-12-20T03:04:13;5.40;;;2.30;;
61460;SDS011;47325;50.506;4.472;2023-12-20T03:10:05;8.80;;;2.30;;
61460;SDS011;47325;50.506;4.472;2023-12-20T03:16:11;6.50;;;2.60;;
61460;SDS011;47325;50.506;4.472;2023-12-20T03:21:56;9.00;;;2.60;;
61460;SDS011;47325;50.506;4.472;2023-12-20T03:27:41;8.70;;;2.80;;
61460;SDS011;47325;50.506;4.472;2023-12-20T03:33:26;10.50;;;2.60;;
61460;SDS011;47325;50.506;4.472;2023-12-20T03:39:11;10.40;;;2.80;;
61460;SDS011;47325;50.506;4.472;2023-12-20T03:44:55;6.00;;;2.80;;
61460;SDS011;47325;50.506;4.472;2023-12-20T03:50:39;5.70;;;2.60;;
61460;SDS011;47325;50.506;4.472;2023-12-20T03:56:23;9.00;;;3.00;;
61460;SDS011;47325;50.506;4.472;2023-12-20T04:02:07;7.40;;;2.90;;
61460;SDS011;47325;50.506;4.472;2023-12-20T04:07:51;7.80;;;2.50;;
61460;SDS011;47325;50.506;4.472;2023-12-20T04:13:36;6.70;;;2.70;;
61460;SDS011;47325;50.506;4.472;2023-12-20T04:19:20;9.40;;;2.90;;
61460;SDS011;47325;50.506;4.472;2023-12-20T04:25:05;7.70;;;3.00;;
61460;SDS011;47325;50.506;4.472;2023-12-20T04:30:49;8.30;;;2.70;;
61460;SDS011;47325;50.506;4.472;2023-12-20T04:36:34;8.30;;;2.60;;
61460;SDS011;47325;50.506;4.472;2023-12-20T04:42:19;7.30;;;2.60;;
61460;SDS011;47325;50.506;4.472;2023-12-20T04:48:03;7.20;;;2.60;;
61460;SDS011;47325;50.506;4.472;2023-12-20T04:53:49;8.40;;;2.70;;
61460;SDS011;47325;50.506;4.472;2023-12-20T04:59:32;6.40;;;2.40;;
61460;SDS011;47325;50.506;4.472;2023-12-20T05:05:17;6.30;;;2.20;;
61460;SDS011;47325;50.506;4.472;2023-12-20T05:11:01;5.80;;;2.50;;
61460;SDS011;47325;50.506;4.472;2023-12-20T05:16:45;5.70;;;2.30;;
61460;SDS011;47325;50.506;4.472;2023-12-20T05:22:29;8.30;;;2.50;;
61460;SDS011;47325;50.506;4.472;2023-12-20T05:28:13;7.80;;;2.40;;
61460;SDS011;47325;50.506;4.472;2023-12-20T05:33:57;12.90;;;2.50;;
61460;SDS011;47325;50.506;4.472;2023-12-20T05:39:45;7.10;;;2.10;;
61460;SDS011;47325;50.506;4.472;2023-12-20T05:45:29;7.40;;;2.30;;
61460;SDS011;47325;50.506;4.472;2023-12-20T05:51:15;6.70;;;2.00;;
61460;SDS011;47325;50.506;4.472;2023-12-20T05:56:59;8.80;;;2.00;;
61460;SDS011;47325;50.506;4.472;2023-12-20T06:02:44;7.80;;;2.30;;
61460;SDS011;47325;50.506;4.472;2023-12-20T06:08:27;5.30;;;1.90;;
61460;SDS011;47325;50.506;4.472;2023-12-20T06:14:11;6.70;;;2.00;;
61460;SDS011;47325;50.506;4.472;2023-12-20T06:19:55;9.00;;;2.10;;
61460;SDS011;47325;50.506;4.472;2023-12-20T06:25:41;5.80;;;1.90;;
61460;SDS011;47325;50.506;4.472;2023-12-20T06:31:25;5.20;;;1.80;;
61460;SDS011;47325;50.506;4.472;2023-12-20T06:37:09;4.60;;;1.80;;
61460;SDS011;47325;50.506;4.472;2023-12-20T06:42:53;7.00;;;1.80;;
61460;SDS011;47325;50.506;4.472;2023-12-20T06:48:57;5.00;;;1.80;;
61460;SDS011;47325;50.506;4.472;2023-12-20T06:54:41;7.70;;;1.90;;
61460;SDS011;47325;50.506;4.472;2023-12-20T07:00:26;6.50;;;2.20;;
61460;SDS011;47325;50.506;4.472;2023-12-20T07:06:11;8.50;;;2.00;;
61460;SDS011;47325;50.506;4.472;2023-12-20T07:11:55;5.90;;;1.70;;
61460;SDS011;47325;50.506;4.472;2023-12-20T07:17:39;6.60;;;1.60;;
61460;SDS011;47325;50.506;4.472;2023-12-20T07:23:24;5.60;;;1.90;;
61460;SDS011;47325;50.506;4.472;2023-12-20T07:29:08;6.90;;;1.80;;
61460;SDS011;47325;50.506;4.472;2023-12-20T07:34:52;8.40;;;1.90;;
61460;SDS011;47325;50.506;4.472;2023-12-20T07:40:38;8.40;;;2.10;;
61460;SDS011;47325;50.506;4.472;2023-12-20T07:46:22;7.00;;;1.90;;
61460;SDS011;47325;50.506;4.472;2023-12-20T07:52:07;7.80;;;1.80;;
61460;SDS011;47325;50.506;4.472;2023-12-20T07:57:52;9.00;;;2.30;;
61460;SDS011;47325;50.506;4.472;2023-12-20T08:03:36;8.70;;;2.50;;
61460;SDS011;47325;50.506;4.472;2023-12-20T08:09:21;4.80;;;2.10;;
61460;SDS011;47325;50.506;4.472;2023-12-20T08:15:05;6.90;;;2.00;;
61460;SDS011;47325;50.506;4.472;2023-12-20T08:20:49;10.60;;;2.70;;
61460;SDS011;47325;50.506;4.472;2023-12-20T08:26:33;25.70;;;6.70;;
61460;SDS011;47325;50.506;4.472;2023-12-20T08:32:17;14.70;;;4.30;;
61460;SDS011;47325;50.506;4.472;2023-12-20T08:38:01;9.30;;;3.40;;
61460;SDS011;47325;50.506;4.472;2023-12-20T08:43:45;9.70;;;3.20;;
61460;SDS011;47325;50.506;4.472;2023-12-20T08:49:29;10.30;;;3.30;;
61460;SDS011;47325;50.506;4.472;2023-12-20T08:55:14;13.60;;;5.20;;
61460;SDS011;47325;50.506;4.472;2023-12-20T09:01:01;14.90;;;3.80;;
61460;SDS011;47325;50.506;4.472;2023-12-20T09:06:46;8.50;;;2.80;;
61460;SDS011;47325;50.506;4.472;2023-12-20T09:12:30;10.30;;;2.50;;
61460;SDS011;47325;50.506;4.472;2023-12-20T09:18:14;6.50;;;2.40;;
61460;SDS011;47325;50.506;4.472;2023-12-20T09:23:58;12.70;;;2.60;;
61460;SDS011;47325;50.506;4.472;2023-12-20T09:29:44;9.80;;;2.30;;
61460;SDS011;47325;50.506;4.472;2023-12-20T09:35:28;7.80;;;2.50;;
61460;SDS011;47325;50.506;4.472;2023-12-20T09:41:13;8.60;;;2.10;;
61460;SDS011;47325;50.506;4.472;2023-12-20T09:46:57;6.70;;;2.40;;
61460;SDS011;47325;50.506;4.472;2023-12-20T09:52:41;10.70;;;2.10;;
61460;SDS011;47325;50.506;4.472;2023-12-20T09:58:27;10.10;;;2.10;;
61460;SDS011;47325;50.506;4.472;2023-12-20T10:04:12;9.40;;;2.00;;
61460;SDS011;47325;50.506;4.472;2023-12-20T10:10:11;5.70;;;1.70;;
61460;SDS011;47325;50.506;4.472;2023-12-20T10:15:56;6.90;;;1.80;;
61460;SDS011;47325;50.506;4.472;2023-12-20T10:21:40;7.90;;;1.80;;
61460;SDS011;47325;50.506;4.472;2023-12-20T10:27:25;6.90;;;2.10;;
61460;SDS011;47325;50.506;4.472;2023-12-20T10:33:09;7.20;;;2.00;;
61460;SDS011;47325;50.506;4.472;2023-12-20T10:38:54;7.80;;;1.80;;
61460;SDS011;47325;50.506;4.472;2023-12-20T10:44:38;5.50;;;1.70;;
61460;SDS011;47325;50.506;4.472;2023-12-20T10:50:22;6.70;;;1.60;;
61460;SDS011;47325;50.506;4.472;2023-12-20T10:56:06;6.90;;;1.70;;
61460;SDS011;47325;50.506;4.472;2023-12-20T11:01:52;11.50;;;1.70;;
61460;SDS011;47325;50.506;4.472;2023-12-20T11:07:38;8.40;;;1.80;;
61460;SDS011;47325;50.506;4.472;2023-12-20T11:13:28;7.80;;;1.50;;
61460;SDS011;47325;50.506;4.472;2023-12-20T11:19:15;7.10;;;1.70;;
61460;SDS011;47325;50.506;4.472;2023-12-20T11:25:02;5.70;;;1.60;;
61460;SDS011;47325;50.506;4.472;2023-12-20T11:30:50;6.60;;;1.70;;
61460;SDS011;47325;50.506;4.472;2023-12-20T11:36:36;6.00;;;1.50;;
61460;SDS011;47325;50.506;4.472;2023-12-20T11:42:20;7.00;;;1.30;;
61460;SDS011;47325;50.506;4.472;2023-12-20T11:48:04;8.30;;;2.50;;
61460;SDS011;47325;50.506;4.472;2023-12-20T11:53:50;7.50;;;1.70;;
61460;SDS011;47325;50.506;4.472;2023-12-20T11:59:35;8.50;;;1.70;;
61460;SDS011;47325;50.506;4.472;2023-12-20T12:05:19;4.20;;;1.60;;
61460;SDS011;47325;50.506;4.472;2023-12-20T12:11:04;7.10;;;1.60;;
61460;SDS011;47325;50.506;4.472;2023-12-20T12:16:48;10.10;;;1.80;;
61460;SDS011;47325;50.506;4.472;2023-12-20T12:22:35;8.40;;;1.60;;
61460;SDS011;47325;50.506;4.472;2023-12-20T12:28:20;7.00;;;1.70;;
61460;SDS011;47325;50.506;4.472;2023-12-20T12:34:04;6.40;;;2.00;;
61460;SDS011;47325;50.506;4.472;2023-12-20T12:39:50;8.90;;;1.80;;
61460;SDS011;47325;50.506;4.472;2023-12-20T12:45:34;5.70;;;1.80;;
61460;SDS011;47325;50.506;4.472;2023-12-20T12:51:18;9.20;;;2.20;;
61460;SDS011;47325;50.506;4.472;2023-12-20T12:57:02;6.70;;;1.80;;
61460;SDS011;47325;50.506;4.472;2023-12-20T13:02:46;8.60;;;1.90;;
61460;SDS011;47325;50.506;4.472;2023-12-20T13:08:30;8.80;;;1.90;;
61460;SDS011;47325;50.506;4.472;2023-12-20T13:14:14;8.10;;;2.20;;
61460;SDS011;47325;50.506;4.472;2023-12-20T13:19:58;6.60;;;2.20;;
61460;SDS011;47325;50.506;4.472;2023-12-20T13:25:43;8.80;;;2.00;;
61460;SDS011;47325;50.506;4.472;2023-12-20T13:31:27;8.60;;;1.90;;
61460;SDS011;47325;50.506;4.472;2023-12-20T13:37:12;8.50;;;2.00;;
61460;SDS011;47325;50.506;4.472;2023-12-20T13:42:56;10.10;;;2.30;;
61460;SDS011;47325;50.506;4.472;2023-12-20T13:48:40;8.00;;;2.00;;
61460;SDS011;47325;50.506;4.472;2023-12-20T13:54:24;7.20;;;2.10;;
61460;SDS011;47325;50.506;4.472;2023-12-20T14:00:10;8.30;;;2.00;;
61460;SDS011;47325;50.506;4.472;2023-12-20T14:05:55;9.20;;;2.10;;
61460;SDS011;47325;50.506;4.472;2023-12-20T14:11:40;7.20;;;2.10;;
61460;SDS011;47325;50.506;4.472;2023-12-20T14:17:24;11.80;;;2.50;;
61460;SDS011;47325;50.506;4.472;2023-12-20T14:23:08;5.70;;;1.90;;
61460;SDS011;47325;50.506;4.472;2023-12-20T14:28:52;9.90;;;2.50;;
61460;SDS011;47325;50.506;4.472;2023-12-20T14:34:36;9.10;;;2.70;;
61460;SDS011;47325;50.506;4.472;2023-12-20T14:40:21;8.60;;;1.90;;
61460;SDS011;47325;50.506;4.472;2023-12-20T14:46:05;8.90;;;2.00;;
61460;SDS011;47325;50.506;4.472;2023-12-20T14:51:49;10.50;;;2.40;;
61460;SDS011;47325;50.506;4.472;2023-12-20T14:57:34;6.50;;;2.10;;
61460;SDS011;47325;50.506;4.472;2023-12-20T15:03:18;9.30;;;1.90;;
61460;SDS011;47325;50.506;4.472;2023-12-20T15:09:02;11.80;;;2.30;;
61460;SDS011;47325;50.506;4.472;2023-12-20T15:14:46;6.20;;;1.90;;
61460;SDS011;47325;50.506;4.472;2023-12-20T15:20:30;7.30;;;2.20;;
61460;SDS011;47325;50.506;4.472;2023-12-20T15:26:14;8.80;;;1.90;;
61460;SDS011;47325;50.506;4.472;2023-12-20T15:31:57;6.40;;;1.90;;
61460;SDS011;47325;50.506;4.472;2023-12-20T15:37:42;10.00;;;2.30;;
61460;SDS011;47325;50.506;4.472;2023-12-20T15:43:27;9.20;;;2.30;;
61460;SDS011;47325;50.506;4.472;2023-12-20T15:49:11;8.00;;;2.20;;
61460;SDS011;47325;50.506;4.472;2023-12-20T15:54:56;9.00;;;1.90;;
61460;SDS011;47325;50.506;4.472;2023-12-20T16:00:41;8.20;;;2.20;;
61460;SDS011;47325;50.506;4.472;2023-12-20T16:06:26;8.70;;;2.40;;
61460;SDS011;47325;50.506;4.472;2023-12-20T16:12:10;7.90;;;1.90;;
61460;SDS011;47325;50.506;4.472;2023-12-20T16:17:54;8.80;;;2.00;;
61460;SDS011;47325;50.506;4.472;2023-12-20T16:23:39;8.40;;;2.30;;
61460;SDS011;47325;50.506;4.472;2023-12-20T16:29:23;9.20;;;2.50;;
61460;SDS011;47325;50.506;4.472;2023-12-20T16:35:07;9.10;;;2.50;;
61460;SDS011;47325;50.506;4.472;2023-12-20T16:40:52;8.60;;;2.00;;
61460;SDS011;47325;50.506;4.472;2023-12-20T16:46:36;7.20;;;1.80;;
61460;SDS011;47325;50.506;4.472;2023-12-20T16:52:20;6.90;;;2.30;;
61460;SDS011;47325;50.506;4.472;2023-12-20T16:58:05;7.00;;;2.10;;
61460;SDS011;47325;50.506;4.472;2023-12-20T17:10:04;8.80;;;2.60;;
61460;SDS011;47325;50.506;4.472;2023-12-20T17:15:49;12.50;;;2.50;;
61460;SDS011;47325;50.506;4.472;2023-12-20T17:21:33;10.50;;;2.70;;
61460;SDS011;47325;50.506;4.472;2023-12-20T17:27:17;9.50;;;2.70;;
61460;SDS011;47325;50.506;4.472;2023-12-20T17:33:01;7.10;;;2.50;;
61460;SDS011;47325;50.506;4.472;2023-12-20T17:38:46;6.70;;;2.30;;
61460;SDS011;47325;50.506;4.472;2023-12-20T17:44:30;11.90;;;2.60;;
61460;SDS011;47325;50.506;4.472;2023-12-20T17:50:14;7.50;;;2.10;;
61460;SDS011;47325;50.506;4.472;2023-12-20T17:55:59;7.50;;;2.20;;
61460;SDS011;47325;50.506;4.472;2023-12-20T18:01:43;5.60;;;2.30;;
61460;SDS011;47325;50.506;4.472;2023-12-20T18:07:29;7.00;;;2.10;;
61460;SDS011;47325;50.506;4.472;2023-12-20T18:13:13;7.10;;;2.90;;
61460;SDS011;47325;50.506;4.472;2023-12-20T18:18:58;11.30;;;2.20;;
61460;SDS011;47325;50.506;4.472;2023-12-20T18:24:42;6.80;;;2.10;;
61460;SDS011;47325;50.506;4.472;2023-12-20T18:30:27;8.00;;;2.10;;
61460;SDS011;47325;50.506;4.472;2023-12-20T18:36:12;7.80;;;1.90;;
61460;SDS011;47325;50.506;4.472;2023-12-20T18:41:55;8.30;;;1.80;;
61460;SDS011;47325;50.506;4.472;2023-12-20T18:47:41;9.20;;;2.90;;
61460;SDS011;47325;50.506;4.472;2023-12-20T18:53:27;5.50;;;1.80;;
61460;SDS011;47325;50.506;4.472;2023-12-20T18:59:10;7.60;;;2.00;;
61460;SDS011;47325;50.506;4.472;2023-12-20T19:04:54;6.70;;;1.70;;
61460;SDS011;47325;50.506;4.472;2023-12-20T19:10:39;6.20;;;2.10;;
61460;SDS011;47325;50.506;4.472;2023-12-20T19:16:23;8.00;;;2.20;;
61460;SDS011;47325;50.506;4.472;2023-12-20T19:22:08;6.20;;;1.90;;
61460;SDS011;47325;50.506;4.472;2023-12-20T19:27:52;6.60;;;1.80;;
61460;SDS011;47325;50.506;4.472;2023-12-20T19:33:39;7.00;;;2.20;;
61460;SDS011;47325;50.506;4.472;2023-12-20T19:39:23;7.60;;;1.90;;
61460;SDS011;47325;50.506;4.472;2023-12-20T19:45:08;7.40;;;1.70;;
61460;SDS011;47325;50.506;4.472;2023-12-20T19:50:55;7.30;;;2.10;;
61460;SDS011;47325;50.506;4.472;2023-12-20T19:56:39;7.30;;;2.10;;
61460;SDS011;47325;50.506;4.472;2023-12-20T20:02:24;6.10;;;1.90;;
61460;SDS011;47325;50.506;4.472;2023-12-20T20:08:09;7.80;;;1.90;;
61460;SDS011;47325;50.506;4.472;2023-12-20T20:13:53;7.60;;;1.90;;
61460;SDS011;47325;50.506;4.472;2023-12-20T20:19:38;5.60;;;1.60;;
61460;SDS011;47325;50.506;4.472;2023-12-20T20:25:22;6.10;;;1.80;;
61460;SDS011;47325;50.506;4.472;2023-12-20T20:31:11;6.50;;;1.50;;
61460;SDS011;47325;50.506;4.472;2023-12-20T20:36:56;6.40;;;2.00;;
61460;SDS011;47325;50.506;4.472;2023-12-20T20:42:40;4.60;;;1.60;;
61460;SDS011;47325;50.506;4.472;2023-12-20T20:48:24;7.30;;;1.70;;
61460;SDS011;47325;50.506;4.472;2023-12-20T20:54:28;4.70;;;1.30;;
61460;SDS011;47325;50.506;4.472;2023-12-20T21:00:12;6.60;;;1.80;;
61460;SDS011;47325;50.506;4.472;2023-12-20T21:05:59;3.60;;;1.50;;
61460;SDS011;47325;50.506;4.472;2023-12-20T21:11:44;5.20;;;1.40;;
61460;SDS011;47325;50.506;4.472;2023-12-20T21:17:28;6.20;;;1.50;;
61460;SDS011;47325;50.506;4.472;2023-12-20T21:23:12;4.40;;;1.40;;
61460;SDS011;47325;50.506;4.472;2023-12-20T21:28:56;3.20;;;1.30;;
61460;SDS011;47325;50.506;4.472;2023-12-20T21:34:40;3.60;;;1.50;;
61460;SDS011;47325;50.506;4.472;2023-12-20T21:40:25;3.90;;;1.40;;
61460;SDS011;47325;50.506;4.472;2023-12-20T21:46:09;5.70;;;1.80;;
61460;SDS011;47325;50.506;4.472;2023-12-20T21:51:53;4.60;;;1.30;;
61460;SDS011;47325;50.506;4.472;2023-12-20T21:57:37;6.30;;;1.30;;
61460;SDS011;47325;50.506;4.472;2023-12-20T22:03:22;4.00;;;1.40;;
61460;SDS011;47325;50.506;4.472;2023-12-20T22:09:06;3.90;;;1.50;;
61460;SDS011;47325;50.506;4.472;2023-12-20T22:14:50;4.40;;;1.40;;
61460;SDS011;47325;50.506;4.472;2023-12-20T22:20:35;3.00;;;1.50;;
61460;SDS011;47325;50.506;4.472;2023-12-20T22:26:20;3.70;;;1.60;;
61460;SDS011;47325;50.506;4.472;2023-12-20T22:32:05;4.20;;;1.40;;
61460;SDS011;47325;50.506;4.472;2023-12-20T22:37:49;3.50;;;1.60;;
61460;SDS011;47325;50.506;4.472;2023-12-20T22:43:33;7.40;;;1.60;;
61460;SDS011;47325;50.506;4.472;2023-12-20T22:49:17;3.70;;;1.40;;
61460;SDS011;47325;50.506;4.472;2023-12-20T22:55:03;4.20;;;1.70;;
61460;SDS011;47325;50.506;4.472;2023-12-20T23:00:47;8.70;;;1.60;;
61460;SDS011;47325;50.506;4.472;2023-12-20T23:06:31;4.90;;;1.70;;
61460;SDS011;47325;50.506;4.472;2023-12-20T23:12:16;2.90;;;1.50;;
61460;SDS011;47325;50.506;4.472;2023-12-20T23:18:00;5.00;;;1.60;;
61460;SDS011;47325;50.506;4.472;2023-12-20T23:23:44;3.90;;;1.50;;
61460;SDS011;47325;50.506;4.472;2023-12-20T23:29:28;5.20;;;2.10;;
61460;SDS011;47325;50.506;4.472;2023-12-20T23:35:12;6.60;;;1.90;;
61460;SDS011;47325;50.506;4.472;2023-12-20T23:41:00;6.30;;;1.70;;
61460;SDS011;47325;50.506;4.472;2023-12-20T23:46:44;5.40;;;1.80;;
61460;SDS011;47325;50.506;4.472;2023-12-20T23:52:28;4.70;;;1.80;;
61460;SDS011;47325;50.506;4.472;2023-12-20T23:58:13;5.20;;;1.80;;
